createdAt,value
2019-05-22T00:00:41.160Z,98.57
2019-05-22T00:03:12.727Z,98.73
2019-05-22T00:05:44.959Z,98.44
2019-05-22T00:08:17.539Z,98.25
2019-05-22T00:10:49.517Z,98.39
2019-05-22T00:13:22.782Z,98.58
2019-05-22T00:15:54.765Z,98.46
2019-05-22T00:18:25.704Z,98.45
2019-05-22T00:20:57.550Z,97.95
2019-05-22T00:23:28.514Z,98.48
2019-05-22T00:25:58.481Z,98.48
2019-05-22T00:28:30.381Z,98.54
2019-05-22T00:31:01.352Z,98.60
2019-05-22T00:33:34.475Z,98.76
2019-05-22T00:36:04.660Z,98.86
2019-05-22T00:38:36.184Z,98.67
2019-05-22T00:41:07.631Z,98.66
2019-05-22T00:43:42.390Z,98.81
2019-05-22T00:46:16.853Z,98.89
2019-05-22T00:48:47.764Z,98.88
2019-05-22T00:51:47.520Z,99.03
2019-05-22T00:54:34.834Z,99.07
2019-05-22T00:57:34.868Z,98.95
2019-05-22T01:00:21.565Z,99.05
2019-05-22T01:02:54.348Z,98.81
2019-05-22T01:05:24.693Z,98.67
2019-05-22T01:07:56.782Z,98.55
2019-05-22T01:10:29.581Z,98.35
2019-05-22T01:13:02.918Z,98.51
2019-05-22T01:15:35.064Z,98.57
2019-05-22T01:18:08.311Z,98.69
2019-05-22T01:20:42.004Z,98.60
2019-05-22T01:23:17.929Z,98.57
2019-05-22T01:25:48.203Z,98.73
2019-05-22T01:28:19.603Z,98.73
2019-05-22T01:31:00.808Z,98.71
2019-05-22T01:33:39.245Z,98.20
2019-05-22T01:36:30.140Z,98.40
2019-05-22T01:39:25.974Z,98.61
2019-05-22T01:42:00.776Z,98.74
2019-05-22T01:44:31.700Z,98.23
2019-05-22T01:47:06.887Z,98.23
2019-05-22T01:49:43.162Z,98.33
2019-05-22T01:52:13.295Z,98.30
2019-05-22T01:54:45.247Z,98.51
2019-05-22T01:57:18.058Z,98.56
2019-05-22T01:59:48.318Z,98.59
2019-05-22T02:02:19.207Z,98.83
2019-05-22T02:04:49.157Z,98.98
2019-05-22T02:07:20.693Z,98.97
2019-05-22T02:09:52.263Z,98.98
2019-05-22T02:12:41.120Z,99.40
2019-05-22T02:15:12.759Z,99.61
2019-05-22T02:17:44.751Z,99.56
2019-05-22T02:20:16.142Z,99.67
2019-05-22T02:22:48.155Z,99.98
2019-05-22T02:25:18.986Z,99.96
2019-05-22T02:27:50.519Z,99.97
2019-05-22T02:30:23.185Z,99.83
2019-05-22T02:32:55.199Z,99.94
2019-05-22T02:35:24.719Z,99.43
2019-05-22T02:37:55.631Z,99.48
2019-05-22T02:40:27.150Z,98.79
2019-05-22T02:42:56.214Z,98.31
2019-05-22T02:45:25.350Z,98.46
2019-05-22T02:47:55.726Z,98.41
2019-05-22T02:50:25.641Z,98.14
2019-05-22T02:52:55.447Z,97.80
2019-05-22T02:55:27.391Z,97.75
2019-05-22T02:57:57.555Z,97.86
2019-05-22T03:00:31.116Z,98.02
2019-05-22T03:03:03.071Z,97.72
2019-05-22T03:05:33.592Z,97.67
2019-05-22T03:08:04.145Z,97.66
2019-05-22T03:10:34.572Z,97.42
2019-05-22T03:13:06.201Z,96.72
2019-05-22T03:15:36.563Z,96.14
2019-05-22T03:18:08.591Z,95.86
2019-05-22T03:20:42.000Z,96.24
2019-05-22T03:23:39.049Z,96.16
2019-05-22T03:26:10.961Z,96.41
2019-05-22T03:28:41.907Z,96.31
2019-05-22T03:31:13.637Z,95.94
2019-05-22T03:33:44.204Z,95.92
2019-05-22T03:36:20.820Z,95.45
2019-05-22T03:38:51.713Z,95.70
2019-05-22T03:41:21.626Z,95.42
2019-05-22T03:43:53.270Z,94.72
2019-05-22T03:46:37.056Z,94.61
2019-05-22T03:49:07.946Z,93.99
2019-05-22T03:51:37.250Z,94.04
2019-05-22T03:54:06.464Z,93.39
2019-05-22T03:56:54.328Z,93.41
2019-05-22T03:59:23.160Z,93.18
2019-05-22T04:01:52.390Z,93.01
2019-05-22T04:04:40.332Z,92.51
2019-05-22T04:07:13.904Z,91.99
2019-05-22T04:09:42.745Z,92.42
2019-05-22T04:12:13.161Z,92.63
2019-05-22T04:14:42.269Z,92.57
2019-05-22T04:17:13.255Z,92.52
2019-05-22T04:19:49.226Z,92.57
2019-05-22T04:22:14.144Z,92.15
2019-05-22T04:24:44.396Z,92.62
2019-05-22T04:27:13.717Z,92.80
2019-05-22T04:29:42.693Z,92.48
2019-05-22T04:32:22.742Z,92.13
2019-05-22T04:34:53.026Z,91.97
2019-05-22T04:37:22.455Z,91.84
2019-05-22T04:39:54.863Z,91.19
2019-05-22T04:42:27.036Z,91.40
2019-05-22T04:45:09.966Z,91.60
2019-05-22T04:47:39.913Z,91.46
2019-05-22T04:50:10.341Z,91.79
2019-05-22T04:52:39.542Z,90.99
2019-05-22T04:55:11.184Z,91.34
2019-05-22T04:57:41.033Z,90.83
2019-05-22T05:00:11.515Z,90.76
2019-05-22T05:02:40.577Z,90.52
2019-05-22T05:05:11.658Z,90.04
2019-05-22T05:07:41.681Z,90.68
2019-05-22T05:10:10.724Z,90.54
2019-05-22T05:12:41.677Z,90.40
2019-05-22T05:15:11.124Z,90.25
2019-05-22T05:17:40.025Z,90.00
2019-05-22T05:20:21.713Z,90.25
2019-05-22T05:22:41.833Z,90.02
2019-05-22T05:25:11.745Z,89.83
2019-05-22T05:27:40.781Z,89.38
2019-05-22T05:30:10.626Z,88.53
2019-05-22T05:32:40.455Z,88.80
2019-05-22T05:35:10.317Z,89.24
2019-05-22T05:37:39.549Z,88.96
2019-05-22T05:40:28.888Z,88.27
2019-05-22T05:42:58.225Z,86.53
2019-05-22T05:45:27.395Z,84.96
2019-05-22T05:47:57.166Z,85.62
2019-05-22T05:50:39.014Z,85.70
2019-05-22T05:52:58.098Z,85.93
2019-05-22T05:55:30.138Z,85.61
2019-05-22T05:58:27.552Z,85.62
2019-05-22T06:00:59.717Z,85.92
2019-05-22T06:03:29.650Z,86.20
2019-05-22T06:05:58.878Z,86.23
2019-05-22T06:08:27.741Z,86.22
2019-05-22T06:11:14.726Z,86.40
2019-05-22T06:13:43.590Z,85.95
2019-05-22T06:16:32.733Z,83.39
2019-05-22T06:19:01.799Z,82.16
2019-05-22T06:21:32.111Z,83.25
2019-05-22T06:24:21.030Z,82.23
2019-05-22T06:27:25.158Z,82.98
2019-05-22T06:29:59.163Z,82.72
2019-05-22T06:32:54.632Z,82.28
2019-05-22T06:35:24.850Z,81.41
2019-05-22T06:38:05.053Z,82.02
2019-05-22T06:40:35.933Z,81.33
2019-05-22T06:43:23.774Z,81.32
2019-05-22T06:45:53.056Z,82.10
2019-05-22T06:48:22.149Z,82.16
2019-05-22T06:50:51.606Z,81.11
2019-05-22T06:53:20.769Z,80.88
2019-05-22T06:55:50.260Z,80.77
2019-05-22T06:58:19.551Z,80.11
2019-05-22T07:00:48.916Z,80.88
2019-05-22T07:03:19.457Z,80.76
2019-05-22T07:05:50.115Z,80.02
2019-05-22T07:08:20.083Z,80.75
2019-05-22T07:10:48.884Z,81.48
2019-05-22T07:13:19.709Z,82.16
2019-05-22T07:15:52.134Z,82.21
2019-05-22T07:18:26.338Z,82.74
2019-05-22T07:20:57.940Z,81.23
2019-05-22T07:23:32.882Z,80.40
2019-05-22T07:26:03.236Z,80.79
2019-05-22T07:28:33.701Z,82.63
2019-05-22T07:31:04.332Z,83.05
2019-05-22T07:33:35.105Z,82.71
2019-05-22T07:36:09.998Z,83.15
2019-05-22T07:38:37.022Z,83.69
2019-05-22T07:41:08.252Z,82.73
2019-05-22T07:43:41.559Z,82.09
2019-05-22T07:46:09.907Z,82.55
2019-05-22T07:48:41.452Z,82.56
2019-05-22T07:51:12.454Z,81.27
2019-05-22T07:53:42.918Z,80.32
2019-05-22T07:56:15.060Z,81.09
2019-05-22T07:58:45.401Z,80.41
2019-05-22T08:01:17.279Z,80.32
2019-05-22T08:03:49.319Z,80.38
2019-05-22T08:06:19.952Z,79.71
2019-05-22T08:08:52.390Z,79.25
2019-05-22T08:11:25.114Z,79.31
2019-05-22T08:13:57.060Z,79.30
2019-05-22T08:16:29.205Z,78.97
2019-05-22T08:18:59.220Z,78.29
2019-05-22T08:21:30.062Z,77.62
2019-05-22T08:24:00.588Z,76.44
2019-05-22T08:26:32.258Z,76.53
2019-05-22T08:29:02.802Z,75.99
2019-05-22T08:31:33.726Z,76.10
2019-05-22T08:34:05.260Z,76.30
2019-05-22T08:36:38.634Z,76.52
2019-05-22T08:39:09.923Z,77.28
2019-05-22T08:41:42.735Z,77.52
2019-05-22T08:44:16.704Z,77.71
2019-05-22T08:46:46.171Z,77.45
2019-05-22T08:49:17.161Z,78.12
2019-05-22T08:51:47.093Z,77.81
2019-05-22T08:54:17.935Z,76.58
2019-05-22T08:56:51.337Z,76.34
2019-05-22T08:59:21.958Z,76.48
2019-05-22T09:01:52.024Z,76.84
2019-05-22T09:04:22.573Z,75.96
2019-05-22T09:06:52.786Z,75.75
2019-05-22T09:09:23.644Z,75.63
2019-05-22T09:11:53.695Z,75.96
2019-05-22T09:14:24.173Z,76.23
2019-05-22T09:16:54.538Z,76.02
2019-05-22T09:19:24.650Z,74.69
2019-05-22T09:21:55.169Z,75.07
2019-05-22T09:24:25.808Z,75.30
2019-05-22T09:26:55.730Z,74.34
2019-05-22T09:29:25.760Z,72.98
2019-05-22T09:31:55.883Z,74.35
2019-05-22T09:34:26.613Z,75.45
2019-05-22T09:36:56.550Z,76.07
2019-05-22T09:39:26.509Z,75.57
2019-05-22T09:41:56.815Z,75.15
2019-05-22T09:44:26.857Z,73.41
2019-05-22T09:46:56.971Z,74.68
2019-05-22T09:49:27.542Z,74.54
2019-05-22T09:51:57.856Z,74.07
2019-05-22T09:54:28.736Z,73.80
2019-05-22T09:56:58.905Z,73.70
2019-05-22T09:59:29.158Z,72.47
2019-05-22T10:01:59.071Z,72.73
2019-05-22T10:04:30.571Z,72.90
2019-05-22T10:07:00.799Z,73.10
2019-05-22T10:09:30.945Z,72.68
2019-05-22T10:12:02.683Z,73.85
2019-05-22T10:14:33.320Z,73.56
2019-05-22T10:17:03.756Z,73.52
2019-05-22T10:19:34.227Z,72.47
2019-05-22T10:22:05.480Z,73.71
2019-05-22T10:24:35.974Z,73.34
2019-05-22T10:27:07.965Z,74.09
2019-05-22T10:29:38.081Z,73.40
2019-05-22T10:32:08.616Z,73.25
2019-05-22T10:34:38.667Z,73.87
2019-05-22T10:37:10.730Z,73.28
2019-05-22T10:39:41.271Z,72.44
2019-05-22T10:42:11.978Z,72.76
2019-05-22T10:44:41.925Z,74.04
2019-05-22T10:47:11.888Z,73.42
2019-05-22T10:49:42.610Z,72.63
2019-05-22T10:52:12.569Z,69.55
2019-05-22T10:54:42.524Z,71.14
2019-05-22T10:57:13.063Z,71.08
2019-05-22T10:59:42.104Z,71.04
2019-05-22T11:02:12.743Z,70.41
2019-05-22T11:04:43.874Z,69.35
2019-05-22T11:07:14.202Z,69.78
2019-05-22T11:09:44.676Z,68.76
2019-05-22T11:12:15.402Z,68.91
2019-05-22T11:14:47.056Z,68.79
2019-05-22T11:17:17.521Z,67.16
2019-05-22T11:19:47.770Z,67.38
2019-05-22T11:22:18.626Z,66.29
2019-05-22T11:24:48.866Z,66.02
2019-05-22T11:27:19.142Z,66.69
2019-05-22T11:29:49.986Z,65.39
2019-05-22T11:32:20.216Z,65.38
2019-05-22T11:34:50.156Z,65.33
2019-05-22T11:37:20.848Z,64.11
2019-05-22T11:39:51.077Z,62.65
2019-05-22T11:42:21.764Z,63.27
2019-05-22T11:44:52.697Z,63.51
2019-05-22T11:47:23.161Z,62.88
2019-05-22T11:49:54.439Z,62.81
2019-05-22T11:52:24.780Z,61.60
2019-05-22T11:54:55.177Z,61.78
2019-05-22T11:57:25.606Z,62.75
2019-05-22T11:59:55.948Z,60.80
2019-05-22T12:02:26.372Z,61.37
2019-05-22T12:04:57.591Z,61.17
2019-05-22T12:07:28.537Z,59.49
2019-05-22T12:09:58.991Z,59.27
2019-05-22T12:12:30.238Z,58.91
2019-05-22T12:15:01.182Z,58.14
2019-05-22T12:17:38.300Z,58.64
2019-05-22T12:20:04.836Z,58.04
2019-05-22T12:22:34.838Z,57.82
2019-05-22T12:25:05.318Z,58.05
2019-05-22T12:27:36.380Z,58.41
2019-05-22T12:30:07.512Z,56.88
2019-05-22T12:32:38.234Z,56.65
2019-05-22T12:35:08.305Z,57.24
2019-05-22T12:37:38.643Z,56.67
2019-05-22T12:40:11.839Z,55.41
2019-05-22T12:42:41.991Z,56.40
2019-05-22T12:45:13.889Z,57.92
2019-05-22T12:47:44.017Z,56.03
2019-05-22T12:50:16.819Z,56.92
2019-05-22T12:52:49.663Z,56.04
2019-05-22T12:55:20.512Z,56.15
2019-05-22T12:57:51.433Z,53.94
2019-05-22T13:00:25.747Z,54.89
2019-05-22T13:02:56.480Z,56.25
2019-05-22T13:05:27.567Z,54.39
2019-05-22T13:07:58.412Z,53.40
2019-05-22T13:10:29.161Z,53.32
2019-05-22T13:12:59.390Z,53.75
2019-05-22T13:15:30.661Z,53.04
2019-05-22T13:18:01.200Z,52.73
2019-05-22T13:20:42.388Z,53.28
2019-05-22T13:23:09.960Z,53.84
2019-05-22T13:25:42.282Z,53.42
2019-05-22T13:28:16.607Z,51.19
2019-05-22T13:30:51.040Z,51.72
2019-05-22T13:33:27.514Z,52.00
2019-05-22T13:35:58.095Z,51.43
2019-05-22T13:38:28.442Z,51.55
2019-05-22T13:40:58.988Z,51.23
2019-05-22T13:43:30.104Z,50.95
2019-05-22T13:46:00.872Z,50.75
2019-05-22T13:48:30.926Z,49.92
2019-05-22T13:51:01.983Z,51.45
2019-05-22T13:53:32.699Z,50.32
2019-05-22T13:56:04.534Z,50.36
2019-05-22T13:58:35.700Z,50.29
2019-05-22T14:01:06.065Z,50.97
2019-05-22T14:03:36.319Z,51.84
2019-05-22T14:06:06.860Z,51.31
2019-05-22T14:08:36.921Z,50.70
2019-05-22T14:11:08.387Z,50.42
2019-05-22T14:13:38.901Z,51.69
2019-05-22T14:16:09.543Z,50.16
2019-05-22T14:18:39.480Z,49.02
2019-05-22T14:21:09.638Z,47.55
2019-05-22T14:23:39.621Z,48.24
2019-05-22T14:26:09.908Z,49.13
2019-05-22T14:28:41.584Z,49.05
2019-05-22T14:31:11.629Z,48.42
2019-05-22T14:33:41.792Z,48.46
2019-05-22T14:36:12.193Z,48.62
2019-05-22T14:38:43.086Z,49.44
2019-05-22T14:41:14.696Z,49.73
2019-05-22T14:43:44.837Z,50.05
2019-05-22T14:46:15.566Z,50.36
2019-05-22T14:48:45.628Z,50.25
2019-05-22T14:51:16.410Z,50.87
2019-05-22T14:53:48.511Z,51.66
2019-05-22T14:56:19.537Z,51.99
2019-05-22T14:58:49.654Z,52.33
2019-05-22T15:01:21.122Z,54.04
2019-05-22T15:03:52.066Z,54.72
2019-05-22T15:06:22.495Z,54.33
2019-05-22T15:08:52.453Z,54.37
2019-05-22T15:11:22.405Z,54.24
2019-05-22T15:13:53.161Z,55.42
2019-05-22T15:16:23.439Z,55.49
2019-05-22T15:18:54.018Z,53.80
2019-05-22T15:21:24.712Z,52.09
2019-05-22T15:23:55.037Z,52.70
2019-05-22T15:26:25.274Z,51.25
2019-05-22T15:28:55.430Z,50.65
2019-05-22T15:31:25.458Z,50.78
2019-05-22T15:33:56.096Z,50.46
2019-05-22T15:36:27.023Z,51.25
2019-05-22T15:38:57.864Z,51.55
2019-05-22T15:41:28.495Z,51.66
2019-05-22T15:43:59.535Z,51.02
2019-05-22T15:46:32.725Z,50.10
2019-05-22T15:49:05.833Z,50.73
2019-05-22T15:51:37.223Z,50.81
2019-05-22T15:54:08.697Z,51.55
2019-05-22T15:56:40.046Z,51.53
2019-05-22T15:59:12.014Z,50.11
2019-05-22T16:01:42.842Z,49.93
2019-05-22T16:04:14.841Z,51.33
2019-05-22T16:06:48.078Z,50.74
2019-05-22T16:09:18.969Z,49.86
2019-05-22T16:11:51.958Z,49.41
2019-05-22T16:14:22.977Z,50.08
2019-05-22T16:16:53.955Z,50.20
2019-05-22T16:19:27.354Z,50.08
2019-05-22T16:22:01.841Z,50.01
2019-05-22T16:24:32.206Z,51.02
2019-05-22T16:27:02.380Z,50.45
2019-05-22T16:29:32.912Z,51.06
2019-05-22T16:32:05.946Z,50.75
2019-05-22T16:34:37.467Z,50.25
2019-05-22T16:37:07.903Z,50.92
2019-05-22T16:39:40.086Z,50.99
2019-05-22T16:42:10.625Z,50.06
2019-05-22T16:44:41.486Z,50.82
2019-05-22T16:47:12.858Z,50.79
2019-05-22T16:49:43.107Z,51.08
2019-05-22T16:52:15.437Z,51.70
2019-05-22T16:54:47.035Z,52.50
2019-05-22T16:57:17.764Z,53.01
2019-05-22T16:59:47.813Z,53.41
2019-05-22T17:02:18.930Z,54.20
2019-05-22T17:04:50.490Z,53.30
2019-05-22T17:07:21.210Z,53.14
2019-05-22T17:09:53.548Z,53.84
2019-05-22T17:12:25.579Z,55.12
2019-05-22T17:14:55.668Z,55.59
2019-05-22T17:17:27.093Z,54.38
2019-05-22T17:19:57.427Z,55.33
2019-05-22T17:22:27.982Z,54.80
2019-05-22T17:24:58.549Z,53.09
2019-05-22T17:27:29.899Z,52.89
2019-05-22T17:30:00.538Z,53.69
2019-05-22T17:32:31.358Z,53.69
2019-05-22T17:35:01.895Z,53.44
2019-05-22T17:37:33.692Z,55.83
2019-05-22T17:40:06.178Z,53.99
2019-05-22T17:42:37.172Z,54.39
2019-05-22T17:45:08.433Z,54.49
2019-05-22T17:47:38.390Z,54.20
2019-05-22T17:50:25.202Z,52.89
2019-05-22T17:52:40.968Z,54.44
2019-05-22T17:55:12.808Z,53.51
2019-05-22T17:57:43.507Z,54.27
2019-05-22T18:00:24.765Z,54.76
2019-05-22T18:02:54.854Z,54.45
2019-05-22T18:05:26.078Z,55.11
2019-05-22T18:07:56.549Z,54.27
2019-05-22T18:10:27.242Z,56.18
2019-05-22T18:12:57.466Z,56.33
2019-05-22T18:15:27.699Z,57.70
2019-05-22T18:17:58.138Z,60.62
2019-05-22T18:20:41.754Z,62.41
2019-05-22T18:23:01.292Z,63.05
2019-05-22T18:25:32.235Z,63.36
2019-05-22T18:28:05.051Z,64.10
2019-05-22T18:30:37.969Z,64.24
2019-05-22T18:33:08.031Z,65.37
2019-05-22T18:35:38.061Z,65.84
2019-05-22T18:38:08.107Z,65.96
2019-05-22T18:40:38.719Z,66.12
2019-05-22T18:43:09.213Z,66.14
2019-05-22T18:45:39.995Z,66.81
2019-05-22T18:48:10.241Z,67.32
2019-05-22T18:50:40.362Z,67.39
2019-05-22T18:53:10.318Z,67.59
2019-05-22T18:55:40.815Z,67.54
2019-05-22T18:58:10.839Z,67.93
2019-05-22T19:00:40.831Z,68.53
2019-05-22T19:03:10.970Z,68.83
2019-05-22T19:05:41.568Z,69.16
2019-05-22T19:08:12.453Z,69.68
2019-05-22T19:10:42.598Z,69.90
2019-05-22T19:13:14.624Z,70.08
2019-05-22T19:15:45.094Z,70.27
2019-05-22T19:18:15.351Z,70.33
2019-05-22T19:20:45.469Z,70.50
2019-05-22T19:23:15.593Z,70.22
2019-05-22T19:25:45.538Z,70.56
2019-05-22T19:28:16.136Z,71.20
2019-05-22T19:30:46.075Z,71.45
2019-05-22T19:33:15.989Z,71.52
2019-05-22T19:35:45.843Z,71.45
2019-05-22T19:38:16.155Z,71.98
2019-05-22T19:40:46.530Z,72.29
2019-05-22T19:43:17.127Z,72.51
2019-05-22T19:45:47.483Z,72.64
2019-05-22T19:48:18.112Z,72.30
2019-05-22T19:50:48.974Z,72.46
2019-05-22T19:53:20.066Z,72.57
2019-05-22T19:55:50.510Z,72.87
2019-05-22T19:58:21.998Z,73.46
2019-05-22T20:00:52.596Z,73.40
2019-05-22T20:03:25.384Z,73.27
2019-05-22T20:05:55.428Z,73.28
2019-05-22T20:08:26.267Z,74.19
2019-05-22T20:10:56.416Z,74.24
2019-05-22T20:13:26.666Z,74.12
2019-05-22T20:15:57.560Z,74.54
2019-05-22T20:18:27.485Z,74.84
2019-05-22T20:20:57.853Z,74.90
2019-05-22T20:23:36.203Z,75.13
2019-05-22T20:26:01.021Z,75.12
2019-05-22T20:28:31.209Z,74.95
2019-05-22T20:31:01.273Z,74.62
2019-05-22T20:33:31.891Z,74.98
2019-05-22T20:36:02.157Z,75.05
2019-05-22T20:38:32.379Z,74.88
2019-05-22T20:41:02.264Z,75.04
2019-05-22T20:43:33.944Z,75.37
2019-05-22T20:46:05.836Z,75.82
2019-05-22T20:48:37.255Z,76.33
2019-05-22T20:51:09.700Z,76.60
2019-05-22T20:53:53.577Z,76.42
2019-05-22T20:56:13.866Z,76.55
2019-05-22T20:58:44.769Z,76.73
2019-05-22T21:01:15.117Z,76.92
2019-05-22T21:03:45.222Z,76.98
2019-05-22T21:06:17.021Z,76.61
2019-05-22T21:08:47.259Z,76.80
2019-05-22T21:11:20.825Z,76.92
2019-05-22T21:13:51.255Z,76.83
2019-05-22T21:16:21.807Z,76.97
2019-05-22T21:18:54.480Z,77.02
2019-05-22T21:21:26.085Z,76.93
2019-05-22T21:24:09.569Z,76.98
2019-05-22T21:26:28.651Z,77.38
2019-05-22T21:28:58.652Z,77.56
2019-05-22T21:31:28.814Z,77.76
2019-05-22T21:33:58.753Z,77.80
2019-05-22T21:36:29.372Z,77.46
2019-05-22T21:39:00.090Z,77.70
2019-05-22T21:41:30.854Z,77.85
2019-05-22T21:44:01.021Z,77.76
2019-05-22T21:46:31.268Z,77.85
2019-05-22T21:49:01.580Z,77.85
2019-05-22T21:51:31.455Z,77.70
2019-05-22T21:54:01.705Z,77.68
2019-05-22T21:56:31.649Z,78.03
2019-05-22T21:59:01.584Z,77.94
2019-05-22T22:01:35.844Z,78.04
2019-05-22T22:04:20.935Z,78.39
2019-05-22T22:06:53.742Z,78.69
2019-05-22T22:09:25.785Z,78.75
2019-05-22T22:11:57.047Z,78.81
2019-05-22T22:14:27.413Z,78.98
2019-05-22T22:16:57.633Z,79.08
2019-05-22T22:19:30.311Z,78.85
2019-05-22T22:22:00.760Z,79.15
2019-05-22T22:24:31.771Z,79.39
2019-05-22T22:27:02.217Z,79.31
2019-05-22T22:29:32.984Z,79.34
2019-05-22T22:32:04.869Z,79.50
2019-05-22T22:34:53.883Z,79.70
2019-05-22T22:37:24.706Z,79.62
2019-05-22T22:39:56.606Z,79.73
2019-05-22T22:42:29.493Z,79.75
2019-05-22T22:44:59.814Z,79.93
2019-05-22T22:47:41.512Z,79.81
2019-05-22T22:50:12.915Z,80.08
2019-05-22T22:52:44.993Z,80.05
2019-05-22T22:55:17.369Z,80.29
2019-05-22T22:57:49.518Z,80.36
2019-05-22T23:00:26.844Z,80.30
2019-05-22T23:02:59.148Z,80.32
2019-05-22T23:05:29.091Z,80.41
2019-05-22T23:08:00.224Z,80.61
2019-05-22T23:10:31.275Z,80.85
2019-05-22T23:13:01.563Z,81.13
2019-05-22T23:15:31.655Z,81.00
2019-05-22T23:18:03.422Z,81.11
2019-05-22T23:20:31.928Z,81.15
2019-05-22T23:23:00.494Z,81.30
2019-05-22T23:25:32.611Z,81.42
2019-05-22T23:28:04.644Z,81.50
2019-05-22T23:30:34.960Z,81.40
2019-05-22T23:33:07.006Z,81.43
2019-05-22T23:35:37.333Z,81.22
2019-05-22T23:38:08.867Z,81.28
2019-05-22T23:40:38.896Z,81.40
2019-05-22T23:43:10.028Z,81.49
2019-05-22T23:45:40.618Z,81.41
2019-05-22T23:48:14.254Z,81.40
2019-05-22T23:50:44.490Z,81.25
2019-05-22T23:53:53.188Z,81.16
2019-05-22T23:56:25.719Z,81.30
2019-05-22T23:58:58.379Z,81.40
